sensor_id;sensor_type;location;lat;lon;timestamp;pressure;altitude;pressure_sealevel;temperature;humidity
29215;BME280;16252;49.816;7.964;2022-07-29T00:02:10;99863.59;;;24.86;38.71
29215;BME280;16252;49.816;7.964;2022-07-29T00:04:36;99874.53;;;24.80;39.07
29215;BME280;16252;49.816;7.964;2022-07-29T00:07:02;99884.44;;;24.81;39.80
29215;BME280;16252;49.816;7.964;2022-07-29T00:09:27;99884.66;;;24.73;39.79
29215;BME280;16252;49.816;7.964;2022-07-29T00:11:53;99863.81;;;24.58;40.11
29215;BME280;16252;49.816;7.964;2022-07-29T00:14:19;99874.13;;;24.63;40.34
29215;BME280;16252;49.816;7.964;2022-07-29T00:16:45;99864.69;;;24.59;40.83
29215;BME280;16252;49.816;7.964;2022-07-29T00:19:10;99850.59;;;24.49;40.39
29215;BME280;16252;49.816;7.964;2022-07-29T00:21:35;99836.06;;;24.41;40.96
29215;BME280;16252;49.816;7.964;2022-07-29T00:24:00;99829.97;;;24.39;40.96
29215;BME280;16252;49.816;7.964;2022-07-29T00:26:26;99838.56;;;24.43;41.59
29215;BME280;16252;49.816;7.964;2022-07-29T00:28:56;99802.19;;;24.22;42.00
29215;BME280;16252;49.816;7.964;2022-07-29T00:31:21;99786.00;;;24.08;42.62
29215;BME280;16252;49.816;7.964;2022-07-29T00:33:46;99821.75;;;24.19;42.68
29215;BME280;16252;49.816;7.964;2022-07-29T00:36:12;99807.66;;;24.09;42.19
29215;BME280;16252;49.816;7.964;2022-07-29T00:38:37;99806.41;;;24.05;42.32
29215;BME280;16252;49.816;7.964;2022-07-29T00:41:02;99672.88;;;23.15;41.99
29215;BME280;16252;49.816;7.964;2022-07-29T00:43:27;99829.72;;;23.94;48.49
29215;BME280;16252;49.816;7.964;2022-07-29T00:45:53;99802.34;;;23.61;52.01
29215;BME280;16252;49.816;7.964;2022-07-29T00:48:18;99788.19;;;23.31;54.08
29215;BME280;16252;49.816;7.964;2022-07-29T00:50:43;99744.94;;;22.86;55.91
29215;BME280;16252;49.816;7.964;2022-07-29T00:53:11;99763.50;;;22.63;57.63
29215;BME280;16252;49.816;7.964;2022-07-29T00:55:37;99764.34;;;22.28;59.08
29215;BME280;16252;49.816;7.964;2022-07-29T00:58:02;99764.59;;;22.05;59.41
29215;BME280;16252;49.816;7.964;2022-07-29T01:00:30;99763.53;;;21.85;60.50
29215;BME280;16252;49.816;7.964;2022-07-29T01:02:55;99760.66;;;21.65;60.98
29215;BME280;16252;49.816;7.964;2022-07-29T01:05:25;99780.97;;;21.62;62.35
29215;BME280;16252;49.816;7.964;2022-07-29T01:07:51;99781.72;;;21.78;58.06
29215;BME280;16252;49.816;7.964;2022-07-29T01:10:18;99788.69;;;21.44;62.93
29215;BME280;16252;49.816;7.964;2022-07-29T01:12:46;99773.03;;;21.31;65.26
29215;BME280;16252;49.816;7.964;2022-07-29T01:15:13;99769.91;;;21.13;65.57
29215;BME280;16252;49.816;7.964;2022-07-29T01:17:56;99725.41;;;20.99;66.08
29215;BME280;16252;49.816;7.964;2022-07-29T01:20:44;99755.72;;;21.17;66.50
29215;BME280;16252;49.816;7.964;2022-07-29T01:23:40;99758.25;;;21.19;67.27
29215;BME280;16252;49.816;7.964;2022-07-29T01:31:58;99780.50;;;21.08;68.79
29215;BME280;16252;49.816;7.964;2022-07-29T01:37:06;99750.44;;;20.94;69.41
29215;BME280;16252;49.816;7.964;2022-07-29T01:39:37;99768.81;;;21.07;69.74
29215;BME280;16252;49.816;7.964;2022-07-29T01:42:15;99731.69;;;20.85;70.20
29215;BME280;16252;49.816;7.964;2022-07-29T01:44:57;99657.69;;;20.38;70.65
29215;BME280;16252;49.816;7.964;2022-07-29T01:47:37;99724.69;;;20.75;70.82
29215;BME280;16252;49.816;7.964;2022-07-29T01:50:07;99735.94;;;20.72;70.88
29215;BME280;16252;49.816;7.964;2022-07-29T01:52:46;99641.69;;;20.28;71.56
29215;BME280;16252;49.816;7.964;2022-07-29T01:55:14;99692.94;;;20.46;72.18
29215;BME280;16252;49.816;7.964;2022-07-29T01:57:44;99718.91;;;20.64;72.34
29215;BME280;16252;49.816;7.964;2022-07-29T02:00:17;99758.22;;;20.83;72.70
29215;BME280;16252;49.816;7.964;2022-07-29T02:02:49;99633.63;;;20.20;72.37
29215;BME280;16252;49.816;7.964;2022-07-29T02:05:22;99701.84;;;20.55;72.25
29215;BME280;16252;49.816;7.964;2022-07-29T02:07:57;99634.28;;;20.22;72.47
29215;BME280;16252;49.816;7.964;2022-07-29T02:10:30;99668.66;;;20.30;72.95
29215;BME280;16252;49.816;7.964;2022-07-29T02:12:59;99720.84;;;20.55;72.54
29215;BME280;16252;49.816;7.964;2022-07-29T02:15:32;99668.75;;;20.22;72.86
29215;BME280;16252;49.816;7.964;2022-07-29T02:18:07;99679.91;;;20.27;72.73
29215;BME280;16252;49.816;7.964;2022-07-29T02:20:34;99659.66;;;20.00;72.06
29215;BME280;16252;49.816;7.964;2022-07-29T02:23:02;99722.44;;;20.34;72.93
29215;BME280;16252;49.816;7.964;2022-07-29T02:25:28;99732.19;;;20.29;73.05
29215;BME280;16252;49.816;7.964;2022-07-29T02:27:55;99770.31;;;20.50;73.15
29215;BME280;16252;49.816;7.964;2022-07-29T02:30:22;99763.75;;;20.45;73.33
29215;BME280;16252;49.816;7.964;2022-07-29T02:32:49;99749.22;;;20.38;73.29
29215;BME280;16252;49.816;7.964;2022-07-29T02:35:16;99760.94;;;20.38;72.90
29215;BME280;16252;49.816;7.964;2022-07-29T02:37:43;99738.81;;;20.26;73.49
29215;BME280;16252;49.816;7.964;2022-07-29T02:40:11;99750.66;;;20.33;73.88
29215;BME280;16252;49.816;7.964;2022-07-29T02:42:41;99778.00;;;20.47;74.02
29215;BME280;16252;49.816;7.964;2022-07-29T02:45:07;99755.50;;;20.23;73.62
29215;BME280;16252;49.816;7.964;2022-07-29T02:47:47;99759.06;;;20.39;74.52
29215;BME280;16252;49.816;7.964;2022-07-29T02:50:22;99764.31;;;20.40;74.40
29215;BME280;16252;49.816;7.964;2022-07-29T02:53:06;99745.38;;;20.32;74.21
29215;BME280;16252;49.816;7.964;2022-07-29T02:55:35;99771.44;;;20.41;74.14
29215;BME280;16252;49.816;7.964;2022-07-29T02:58:05;99768.63;;;20.34;73.95
29215;BME280;16252;49.816;7.964;2022-07-29T03:00:36;99772.94;;;20.29;74.10
29215;BME280;16252;49.816;7.964;2022-07-29T03:03:04;99776.19;;;20.24;73.52
29215;BME280;16252;49.816;7.964;2022-07-29T03:05:32;99749.25;;;20.00;73.55
29215;BME280;16252;49.816;7.964;2022-07-29T03:08:00;99768.78;;;20.03;74.16
29215;BME280;16252;49.816;7.964;2022-07-29T03:10:27;99774.38;;;20.02;73.64
29215;BME280;16252;49.816;7.964;2022-07-29T03:12:55;99781.13;;;20.06;73.70
29215;BME280;16252;49.816;7.964;2022-07-29T03:15:21;99772.75;;;19.92;73.63
29215;BME280;16252;49.816;7.964;2022-07-29T03:17:47;99777.16;;;19.94;73.75
29215;BME280;16252;49.816;7.964;2022-07-29T03:20:13;99747.13;;;19.72;73.92
29215;BME280;16252;49.816;7.964;2022-07-29T03:22:42;99787.00;;;19.95;74.57
29215;BME280;16252;49.816;7.964;2022-07-29T03:25:10;99754.44;;;19.72;74.18
29215;BME280;16252;49.816;7.964;2022-07-29T03:27:35;99781.63;;;19.86;74.27
29215;BME280;16252;49.816;7.964;2022-07-29T03:30:00;99769.34;;;19.76;74.44
29215;BME280;16252;49.816;7.964;2022-07-29T03:32:25;99784.53;;;19.85;74.20
29215;BME280;16252;49.816;7.964;2022-07-29T03:34:51;99786.94;;;19.80;74.28
29215;BME280;16252;49.816;7.964;2022-07-29T03:37:16;99777.50;;;19.76;74.60
29215;BME280;16252;49.816;7.964;2022-07-29T03:39:42;99784.78;;;19.75;75.00
29215;BME280;16252;49.816;7.964;2022-07-29T03:42:11;99734.88;;;19.53;75.30
29215;BME280;16252;49.816;7.964;2022-07-29T03:44:41;99786.41;;;19.84;75.06
29215;BME280;16252;49.816;7.964;2022-07-29T03:47:09;99785.56;;;19.84;74.96
29215;BME280;16252;49.816;7.964;2022-07-29T03:49:36;99780.56;;;19.73;74.68
29215;BME280;16252;49.816;7.964;2022-07-29T03:52:03;99793.03;;;19.82;74.70
29215;BME280;16252;49.816;7.964;2022-07-29T03:54:29;99790.53;;;19.80;74.64
29215;BME280;16252;49.816;7.964;2022-07-29T03:56:58;99766.13;;;19.72;75.32
29215;BME280;16252;49.816;7.964;2022-07-29T03:59:24;99795.56;;;20.06;72.99
29215;BME280;16252;49.816;7.964;2022-07-29T04:01:51;99789.47;;;19.81;73.97
29215;BME280;16252;49.816;7.964;2022-07-29T04:04:17;99782.41;;;19.72;74.26
29215;BME280;16252;49.816;7.964;2022-07-29T04:06:44;99776.03;;;19.65;74.60
29215;BME280;16252;49.816;7.964;2022-07-29T04:09:09;99782.47;;;19.64;74.63
29215;BME280;16252;49.816;7.964;2022-07-29T04:11:36;99781.16;;;19.60;74.86
29215;BME280;16252;49.816;7.964;2022-07-29T04:14:01;99770.31;;;19.52;74.87
29215;BME280;16252;49.816;7.964;2022-07-29T04:16:26;99799.78;;;19.63;74.93
29215;BME280;16252;49.816;7.964;2022-07-29T04:18:52;99778.31;;;19.53;74.90
29215;BME280;16252;49.816;7.964;2022-07-29T04:21:17;99792.16;;;19.58;74.72
29215;BME280;16252;49.816;7.964;2022-07-29T04:23:42;99707.38;;;19.10;74.64
29215;BME280;16252;49.816;7.964;2022-07-29T04:26:10;99782.53;;;19.56;74.71
29215;BME280;16252;49.816;7.964;2022-07-29T04:28:35;99799.09;;;19.61;74.95
29215;BME280;16252;49.816;7.964;2022-07-29T04:31:01;99793.00;;;19.59;75.24
29215;BME280;16252;49.816;7.964;2022-07-29T04:33:27;99726.31;;;19.18;74.98
29215;BME280;16252;49.816;7.964;2022-07-29T04:35:52;99756.53;;;19.38;74.95
29215;BME280;16252;49.816;7.964;2022-07-29T04:38:17;99786.75;;;19.58;75.17
29215;BME280;16252;49.816;7.964;2022-07-29T04:40:42;99796.88;;;19.64;75.40
29215;BME280;16252;49.816;7.964;2022-07-29T04:43:07;99791.63;;;19.63;75.10
29215;BME280;16252;49.816;7.964;2022-07-29T04:45:33;99782.16;;;19.59;75.36
29215;BME280;16252;49.816;7.964;2022-07-29T04:47:58;99801.91;;;19.76;75.25
29215;BME280;16252;49.816;7.964;2022-07-29T04:50:23;99787.03;;;19.63;75.04
29215;BME280;16252;49.816;7.964;2022-07-29T04:52:49;99785.25;;;19.56;75.19
29215;BME280;16252;49.816;7.964;2022-07-29T04:55:14;99798.41;;;19.67;75.12
29215;BME280;16252;49.816;7.964;2022-07-29T04:57:39;99792.84;;;19.60;74.97
29215;BME280;16252;49.816;7.964;2022-07-29T05:00:06;99808.91;;;19.70;75.35
29215;BME280;16252;49.816;7.964;2022-07-29T05:02:31;99782.34;;;19.57;75.44
29215;BME280;16252;49.816;7.964;2022-07-29T05:04:57;99780.84;;;19.55;75.46
29215;BME280;16252;49.816;7.964;2022-07-29T05:07:22;99754.13;;;19.43;75.55
29215;BME280;16252;49.816;7.964;2022-07-29T05:09:47;99795.34;;;19.70;75.69
29215;BME280;16252;49.816;7.964;2022-07-29T05:12:13;99730.25;;;19.39;75.91
29215;BME280;16252;49.816;7.964;2022-07-29T05:14:38;99802.97;;;19.89;75.59
29215;BME280;16252;49.816;7.964;2022-07-29T05:17:03;99803.94;;;19.97;75.88
29215;BME280;16252;49.816;7.964;2022-07-29T05:19:29;99805.19;;;20.09;75.85
29215;BME280;16252;49.816;7.964;2022-07-29T05:21:54;99818.91;;;20.16;76.05
29215;BME280;16252;49.816;7.964;2022-07-29T05:24:19;99814.41;;;20.23;75.54
29215;BME280;16252;49.816;7.964;2022-07-29T05:26:44;99811.50;;;20.24;75.16
29215;BME280;16252;49.816;7.964;2022-07-29T05:29:10;99820.06;;;20.36;75.38
29215;BME280;16252;49.816;7.964;2022-07-29T05:31:36;99817.06;;;20.46;75.36
29215;BME280;16252;49.816;7.964;2022-07-29T05:34:01;99805.84;;;20.49;75.49
29215;BME280;16252;49.816;7.964;2022-07-29T05:36:26;99795.31;;;20.46;75.35
29215;BME280;16252;49.816;7.964;2022-07-29T05:38:52;99799.28;;;20.58;75.32
29215;BME280;16252;49.816;7.964;2022-07-29T05:41:18;99799.22;;;20.66;75.25
29215;BME280;16252;49.816;7.964;2022-07-29T05:43:43;99787.03;;;20.62;74.92
29215;BME280;16252;49.816;7.964;2022-07-29T05:46:09;99802.31;;;20.78;74.71
29215;BME280;16252;49.816;7.964;2022-07-29T05:48:34;99797.06;;;20.76;74.50
29215;BME280;16252;49.816;7.964;2022-07-29T05:50:59;99801.28;;;20.79;74.53
29215;BME280;16252;49.816;7.964;2022-07-29T05:53:25;99821.72;;;20.90;74.56
29215;BME280;16252;49.816;7.964;2022-07-29T05:55:50;99811.00;;;20.88;74.72
29215;BME280;16252;49.816;7.964;2022-07-29T05:58:15;99818.06;;;20.97;74.84
29215;BME280;16252;49.816;7.964;2022-07-29T06:00:41;99824.59;;;21.03;75.02
29215;BME280;16252;49.816;7.964;2022-07-29T06:03:07;99815.31;;;20.97;74.50
29215;BME280;16252;49.816;7.964;2022-07-29T06:05:32;99820.28;;;20.94;74.51
29215;BME280;16252;49.816;7.964;2022-07-29T06:07:57;99813.66;;;20.96;75.01
29215;BME280;16252;49.816;7.964;2022-07-29T06:10:23;99835.19;;;21.13;74.79
29215;BME280;16252;49.816;7.964;2022-07-29T06:12:48;99821.50;;;21.06;74.76
29215;BME280;16252;49.816;7.964;2022-07-29T06:15:13;99831.91;;;21.17;74.88
29215;BME280;16252;49.816;7.964;2022-07-29T06:17:38;99833.84;;;21.24;74.54
29215;BME280;16252;49.816;7.964;2022-07-29T06:20:04;99804.81;;;21.09;74.52
29215;BME280;16252;49.816;7.964;2022-07-29T06:22:30;99831.88;;;21.32;74.01
29215;BME280;16252;49.816;7.964;2022-07-29T06:24:55;99818.00;;;21.27;73.75
29215;BME280;16252;49.816;7.964;2022-07-29T06:27:20;99816.66;;;21.38;73.45
29215;BME280;16252;49.816;7.964;2022-07-29T06:29:45;99774.25;;;21.07;72.50
29215;BME280;16252;49.816;7.964;2022-07-29T06:32:11;99833.16;;;21.51;72.10
29215;BME280;16252;49.816;7.964;2022-07-29T06:34:36;99832.16;;;21.52;72.23
29215;BME280;16252;49.816;7.964;2022-07-29T06:37:08;99827.34;;;21.54;72.23
29215;BME280;16252;49.816;7.964;2022-07-29T06:39:37;99835.44;;;21.69;69.72
29215;BME280;16252;49.816;7.964;2022-07-29T06:42:06;99830.84;;;21.70;71.25
29215;BME280;16252;49.816;7.964;2022-07-29T06:44:32;99826.44;;;21.69;68.58
29215;BME280;16252;49.816;7.964;2022-07-29T06:46:59;99828.38;;;21.75;70.12
29215;BME280;16252;49.816;7.964;2022-07-29T06:49:24;99822.38;;;21.79;69.26
29215;BME280;16252;49.816;7.964;2022-07-29T06:51:51;99823.00;;;21.81;68.12
29215;BME280;16252;49.816;7.964;2022-07-29T06:54:16;99827.66;;;21.88;66.70
29215;BME280;16252;49.816;7.964;2022-07-29T06:56:41;99819.31;;;21.89;65.60
29215;BME280;16252;49.816;7.964;2022-07-29T06:59:09;99845.25;;;22.06;66.58
29215;BME280;16252;49.816;7.964;2022-07-29T07:01:36;99846.81;;;22.16;67.59
29215;BME280;16252;49.816;7.964;2022-07-29T07:04:02;99851.03;;;22.18;65.73
29215;BME280;16252;49.816;7.964;2022-07-29T07:06:27;99795.47;;;21.91;67.23
29215;BME280;16252;49.816;7.964;2022-07-29T07:08:52;99810.09;;;22.12;65.26
29215;BME280;16252;49.816;7.964;2022-07-29T07:11:18;99844.31;;;22.42;66.99
29215;BME280;16252;49.816;7.964;2022-07-29T07:13:43;99847.53;;;22.53;64.52
29215;BME280;16252;49.816;7.964;2022-07-29T07:16:08;99837.22;;;22.48;65.74
29215;BME280;16252;49.816;7.964;2022-07-29T07:18:33;99830.41;;;22.59;64.95
29215;BME280;16252;49.816;7.964;2022-07-29T07:20:58;99790.41;;;22.38;64.21
29215;BME280;16252;49.816;7.964;2022-07-29T07:23:24;99845.44;;;22.83;64.78
29215;BME280;16252;49.816;7.964;2022-07-29T07:25:50;99859.63;;;23.00;64.70
29215;BME280;16252;49.816;7.964;2022-07-29T07:28:15;99834.59;;;22.96;62.85
29215;BME280;16252;49.816;7.964;2022-07-29T07:30:40;99816.19;;;22.98;64.98
29215;BME280;16252;49.816;7.964;2022-07-29T07:33:05;99844.63;;;23.24;66.07
29215;BME280;16252;49.816;7.964;2022-07-29T07:35:31;99862.81;;;23.51;64.02
29215;BME280;16252;49.816;7.964;2022-07-29T07:37:57;99862.44;;;23.68;64.07
29215;BME280;16252;49.816;7.964;2022-07-29T07:40:23;99851.16;;;23.84;63.31
29215;BME280;16252;49.816;7.964;2022-07-29T07:42:48;99845.28;;;23.94;62.21
29215;BME280;16252;49.816;7.964;2022-07-29T07:45:13;99856.66;;;24.17;63.36
29215;BME280;16252;49.816;7.964;2022-07-29T07:47:39;99847.41;;;24.32;61.70
29215;BME280;16252;49.816;7.964;2022-07-29T07:50:06;99852.69;;;24.67;61.94
29215;BME280;16252;49.816;7.964;2022-07-29T07:52:32;99845.69;;;24.91;61.61
29215;BME280;16252;49.816;7.964;2022-07-29T07:54:58;99830.03;;;25.11;61.22
29215;BME280;16252;49.816;7.964;2022-07-29T07:57:23;99863.50;;;25.71;59.08
29215;BME280;16252;49.816;7.964;2022-07-29T07:59:48;99868.53;;;26.13;61.24
29215;BME280;16252;49.816;7.964;2022-07-29T08:02:14;99839.66;;;26.35;60.04
29215;BME280;16252;49.816;7.964;2022-07-29T08:04:39;99857.69;;;26.93;57.18
29215;BME280;16252;49.816;7.964;2022-07-29T08:07:06;99825.38;;;27.14;56.84
29215;BME280;16252;49.816;7.964;2022-07-29T08:09:31;99823.25;;;27.64;55.13
29215;BME280;16252;49.816;7.964;2022-07-29T08:11:57;99850.69;;;28.13;55.93
29215;BME280;16252;49.816;7.964;2022-07-29T08:14:23;99839.22;;;28.28;54.78
29215;BME280;16252;49.816;7.964;2022-07-29T08:16:48;99854.81;;;28.46;51.86
29215;BME280;16252;49.816;7.964;2022-07-29T08:19:14;99869.91;;;28.67;52.71
29215;BME280;16252;49.816;7.964;2022-07-29T08:21:39;99835.69;;;28.63;51.66
29215;BME280;16252;49.816;7.964;2022-07-29T08:24:05;99874.94;;;29.05;50.52
29215;BME280;16252;49.816;7.964;2022-07-29T08:26:49;99835.19;;;29.13;51.23
29215;BME280;16252;49.816;7.964;2022-07-29T08:29:15;99866.34;;;29.83;51.38
29215;BME280;16252;49.816;7.964;2022-07-29T08:31:41;99872.56;;;30.35;50.83
29215;BME280;16252;49.816;7.964;2022-07-29T08:34:06;99857.47;;;30.94;49.91
29215;BME280;16252;49.816;7.964;2022-07-29T08:36:32;99864.81;;;31.71;48.71
29215;BME280;16252;49.816;7.964;2022-07-29T08:38:58;99865.72;;;32.36;48.02
29215;BME280;16252;49.816;7.964;2022-07-29T08:41:24;99863.06;;;32.84;44.22
29215;BME280;16252;49.816;7.964;2022-07-29T08:43:50;99858.34;;;33.32;45.61
29215;BME280;16252;49.816;7.964;2022-07-29T08:46:16;99849.66;;;33.76;43.25
29215;BME280;16252;49.816;7.964;2022-07-29T08:48:42;99855.28;;;34.12;43.16
29215;BME280;16252;49.816;7.964;2022-07-29T08:51:08;99856.41;;;34.41;42.32
29215;BME280;16252;49.816;7.964;2022-07-29T08:53:33;99853.66;;;34.62;40.54
29215;BME280;16252;49.816;7.964;2022-07-29T08:55:59;99854.13;;;35.00;41.46
29215;BME280;16252;49.816;7.964;2022-07-29T08:58:26;99859.00;;;35.38;39.42
29215;BME280;16252;49.816;7.964;2022-07-29T09:00:54;99860.72;;;35.84;40.03
29215;BME280;16252;49.816;7.964;2022-07-29T09:03:22;99864.69;;;36.17;39.43
29215;BME280;16252;49.816;7.964;2022-07-29T09:05:48;99864.41;;;36.48;37.59
29215;BME280;16252;49.816;7.964;2022-07-29T09:08:15;99870.53;;;36.84;38.18
29215;BME280;16252;49.816;7.964;2022-07-29T09:10:40;99866.53;;;37.20;35.89
29215;BME280;16252;49.816;7.964;2022-07-29T09:13:06;99860.31;;;37.47;35.13
29215;BME280;16252;49.816;7.964;2022-07-29T09:15:31;99866.41;;;37.73;34.69
29215;BME280;16252;49.816;7.964;2022-07-29T09:17:57;99872.88;;;37.87;35.53
29215;BME280;16252;49.816;7.964;2022-07-29T09:20:24;99858.03;;;37.73;34.53
29215;BME280;16252;49.816;7.964;2022-07-29T09:22:51;99867.84;;;37.70;33.11
29215;BME280;16252;49.816;7.964;2022-07-29T09:25:34;99869.94;;;37.79;35.50
29215;BME280;16252;49.816;7.964;2022-07-29T09:28:14;99871.31;;;37.81;35.07
29215;BME280;16252;49.816;7.964;2022-07-29T09:30:56;99871.00;;;37.83;33.71
29215;BME280;16252;49.816;7.964;2022-07-29T09:33:22;99860.28;;;37.71;32.25
29215;BME280;16252;49.816;7.964;2022-07-29T09:36:04;99858.63;;;37.70;34.26
29215;BME280;16252;49.816;7.964;2022-07-29T09:38:30;99852.56;;;37.63;32.61
29215;BME280;16252;49.816;7.964;2022-07-29T09:40:57;99852.38;;;37.78;32.35
29215;BME280;16252;49.816;7.964;2022-07-29T09:43:23;99829.03;;;37.88;32.13
29215;BME280;16252;49.816;7.964;2022-07-29T09:45:48;99864.66;;;38.15;31.34
29215;BME280;16252;49.816;7.964;2022-07-29T09:48:19;99857.72;;;38.12;32.04
29215;BME280;16252;49.816;7.964;2022-07-29T09:50:46;99859.91;;;37.97;32.17
29215;BME280;16252;49.816;7.964;2022-07-29T09:53:32;99865.66;;;37.86;32.09
29215;BME280;16252;49.816;7.964;2022-07-29T09:55:58;99859.41;;;37.76;31.47
29215;BME280;16252;49.816;7.964;2022-07-29T09:58:23;99859.81;;;37.83;31.45
29215;BME280;16252;49.816;7.964;2022-07-29T10:00:50;99846.84;;;37.92;32.79
29215;BME280;16252;49.816;7.964;2022-07-29T10:03:17;99846.19;;;38.19;32.50
29215;BME280;16252;49.816;7.964;2022-07-29T10:05:43;99862.66;;;38.53;30.39
29215;BME280;16252;49.816;7.964;2022-07-29T10:08:10;99834.50;;;38.64;30.70
29215;BME280;16252;49.816;7.964;2022-07-29T10:10:39;99844.84;;;39.10;30.62
29215;BME280;16252;49.816;7.964;2022-07-29T10:13:09;99851.34;;;39.47;29.79
29215;BME280;16252;49.816;7.964;2022-07-29T10:15:37;99851.00;;;39.76;29.51
29215;BME280;16252;49.816;7.964;2022-07-29T10:18:06;99857.31;;;39.81;28.22
29215;BME280;16252;49.816;7.964;2022-07-29T10:20:32;99857.19;;;39.73;28.24
29215;BME280;16252;49.816;7.964;2022-07-29T10:22:57;99855.59;;;39.58;28.24
29215;BME280;16252;49.816;7.964;2022-07-29T10:25:23;99844.22;;;39.40;28.02
29215;BME280;16252;49.816;7.964;2022-07-29T10:27:49;99854.16;;;39.33;28.37
29215;BME280;16252;49.816;7.964;2022-07-29T10:30:17;99844.34;;;39.35;28.03
29215;BME280;16252;49.816;7.964;2022-07-29T10:33:14;99849.66;;;39.59;29.65
29215;BME280;16252;49.816;7.964;2022-07-29T10:41:01;99845.50;;;40.52;28.63
29215;BME280;16252;49.816;7.964;2022-07-29T10:43:51;99838.56;;;40.81;27.00
29215;BME280;16252;49.816;7.964;2022-07-29T10:46:18;99818.34;;;40.92;26.29
29215;BME280;16252;49.816;7.964;2022-07-29T10:49:14;99837.63;;;41.34;28.46
29215;BME280;16252;49.816;7.964;2022-07-29T10:54:37;99837.25;;;42.02;26.34
29215;BME280;16252;49.816;7.964;2022-07-29T10:57:26;99830.44;;;42.20;26.62
29215;BME280;16252;49.816;7.964;2022-07-29T11:02:41;99819.38;;;42.06;25.22
29215;BME280;16252;49.816;7.964;2022-07-29T11:05:15;99827.13;;;41.83;24.57
29215;BME280;16252;49.816;7.964;2022-07-29T11:10:37;99823.31;;;41.04;24.83
29215;BME280;16252;49.816;7.964;2022-07-29T11:13:02;99812.09;;;40.64;24.92
29215;BME280;16252;49.816;7.964;2022-07-29T11:15:28;99815.13;;;40.23;24.16
29215;BME280;16252;49.816;7.964;2022-07-29T11:23:22;99821.91;;;39.21;26.03
29215;BME280;16252;49.816;7.964;2022-07-29T11:26:16;99785.53;;;38.66;26.63
29215;BME280;16252;49.816;7.964;2022-07-29T11:31:41;99821.22;;;38.09;26.16
29215;BME280;16252;49.816;7.964;2022-07-29T11:34:27;99814.78;;;37.89;27.32
29215;BME280;16252;49.816;7.964;2022-07-29T11:39:41;99825.59;;;37.34;27.48
29215;BME280;16252;49.816;7.964;2022-07-29T11:47:23;99809.91;;;36.95;27.27
29215;BME280;16252;49.816;7.964;2022-07-29T11:49:50;99817.25;;;36.86;27.11
29215;BME280;16252;49.816;7.964;2022-07-29T11:52:17;99797.19;;;36.60;27.40
29215;BME280;16252;49.816;7.964;2022-07-29T11:54:42;99811.19;;;36.50;27.53
29215;BME280;16252;49.816;7.964;2022-07-29T11:57:08;99796.66;;;36.29;27.73
29215;BME280;16252;49.816;7.964;2022-07-29T11:59:41;99795.03;;;36.22;27.58
29215;BME280;16252;49.816;7.964;2022-07-29T12:02:08;99789.56;;;36.07;27.38
29215;BME280;16252;49.816;7.964;2022-07-29T12:04:34;99800.47;;;36.03;28.22
29215;BME280;16252;49.816;7.964;2022-07-29T12:07:12;99798.22;;;36.00;27.71
29215;BME280;16252;49.816;7.964;2022-07-29T12:09:38;99790.28;;;35.89;27.62
29215;BME280;16252;49.816;7.964;2022-07-29T12:12:03;99796.75;;;35.79;27.72
29215;BME280;16252;49.816;7.964;2022-07-29T12:14:32;99787.06;;;35.71;27.55
29215;BME280;16252;49.816;7.964;2022-07-29T12:16:59;99782.38;;;35.56;27.29
29215;BME280;16252;49.816;7.964;2022-07-29T12:19:27;99775.25;;;35.45;27.45
29215;BME280;16252;49.816;7.964;2022-07-29T12:21:54;99736.75;;;35.18;28.31
29215;BME280;16252;49.816;7.964;2022-07-29T12:24:20;99783.91;;;35.38;28.05
29215;BME280;16252;49.816;7.964;2022-07-29T12:26:58;99782.47;;;35.46;28.01
29215;BME280;16252;49.816;7.964;2022-07-29T12:29:24;99769.16;;;35.38;28.35
29215;BME280;16252;49.816;7.964;2022-07-29T12:31:52;99777.75;;;35.42;27.79
29215;BME280;16252;49.816;7.964;2022-07-29T12:34:23;99706.78;;;35.00;27.66
29215;BME280;16252;49.816;7.964;2022-07-29T12:36:51;99761.44;;;35.25;27.57
29215;BME280;16252;49.816;7.964;2022-07-29T12:39:17;99749.25;;;35.15;27.74
29215;BME280;16252;49.816;7.964;2022-07-29T12:41:43;99748.47;;;35.10;27.96
29215;BME280;16252;49.816;7.964;2022-07-29T12:44:09;99759.56;;;35.15;27.80
29215;BME280;16252;49.816;7.964;2022-07-29T12:46:35;99762.88;;;35.07;27.55
29215;BME280;16252;49.816;7.964;2022-07-29T12:49:00;99766.25;;;35.09;27.71
29215;BME280;16252;49.816;7.964;2022-07-29T12:51:34;99740.16;;;35.00;27.84
29215;BME280;16252;49.816;7.964;2022-07-29T12:56:29;99747.09;;;35.02;28.25
29215;BME280;16252;49.816;7.964;2022-07-29T12:58:54;99741.81;;;35.01;27.46
29215;BME280;16252;49.816;7.964;2022-07-29T13:01:20;99742.06;;;34.99;27.53
29215;BME280;16252;49.816;7.964;2022-07-29T13:06:46;99729.03;;;35.00;28.24
29215;BME280;16252;49.816;7.964;2022-07-29T13:09:20;99752.34;;;35.04;28.21
29215;BME280;16252;49.816;7.964;2022-07-29T13:11:53;99745.72;;;35.00;28.08
29215;BME280;16252;49.816;7.964;2022-07-29T13:14:39;99742.38;;;34.98;27.91
29215;BME280;16252;49.816;7.964;2022-07-29T13:17:08;99747.69;;;34.89;28.08
29215;BME280;16252;49.816;7.964;2022-07-29T13:19:44;99740.75;;;34.86;27.62
29215;BME280;16252;49.816;7.964;2022-07-29T13:22:12;99741.91;;;34.75;27.98
29215;BME280;16252;49.816;7.964;2022-07-29T13:24:47;99748.84;;;34.78;28.03
29215;BME280;16252;49.816;7.964;2022-07-29T13:27:14;99748.31;;;34.70;28.13
29215;BME280;16252;49.816;7.964;2022-07-29T13:29:40;99743.03;;;34.64;28.41
29215;BME280;16252;49.816;7.964;2022-07-29T13:32:05;99743.91;;;34.64;28.00
29215;BME280;16252;49.816;7.964;2022-07-29T13:34:31;99741.38;;;34.58;28.41
29215;BME280;16252;49.816;7.964;2022-07-29T13:36:56;99726.41;;;34.48;28.30
29215;BME280;16252;49.816;7.964;2022-07-29T13:39:21;99745.84;;;34.59;28.00
29215;BME280;16252;49.816;7.964;2022-07-29T13:41:47;99733.91;;;34.48;28.09
29215;BME280;16252;49.816;7.964;2022-07-29T13:44:12;99743.06;;;34.48;28.27
29215;BME280;16252;49.816;7.964;2022-07-29T13:46:37;99718.13;;;34.28;28.58
29215;BME280;16252;49.816;7.964;2022-07-29T13:49:03;99709.22;;;34.26;29.54